sensor_id;sensor_type;location;lat;lon;timestamp;P1;durP1;ratioP1;P2;durP2;ratioP2
6452;SDS011;3259;51.080;13.712;2022-10-16T00:02:16;4.63;;;4.22;;
6452;SDS011;3259;51.080;13.712;2022-10-16T00:05:05;4.80;;;4.25;;
6452;SDS011;3259;51.080;13.712;2022-10-16T00:07:54;4.80;;;4.28;;
6452;SDS011;3259;51.080;13.712;2022-10-16T00:10:42;4.53;;;4.13;;
6452;SDS011;3259;51.080;13.712;2022-10-16T00:13:32;4.95;;;4.43;;
6452;SDS011;3259;51.080;13.712;2022-10-16T00:16:22;4.80;;;4.38;;
6452;SDS011;3259;51.080;13.712;2022-10-16T00:19:11;4.63;;;4.28;;
6452;SDS011;3259;51.080;13.712;2022-10-16T00:22:00;4.32;;;3.92;;
6452;SDS011;3259;51.080;13.712;2022-10-16T00:24:49;6.00;;;4.43;;
6452;SDS011;3259;51.080;13.712;2022-10-16T00:27:37;5.50;;;5.00;;
6452;SDS011;3259;51.080;13.712;2022-10-16T00:30:26;4.55;;;4.15;;
6452;SDS011;3259;51.080;13.712;2022-10-16T00:33:17;5.00;;;4.50;;
6452;SDS011;3259;51.080;13.712;2022-10-16T00:36:06;4.50;;;4.20;;
6452;SDS011;3259;51.080;13.712;2022-10-16T00:38:56;7.50;;;4.13;;
6452;SDS011;3259;51.080;13.712;2022-10-16T00:41:52;4.70;;;4.28;;
6452;SDS011;3259;51.080;13.712;2022-10-16T00:44:44;4.18;;;3.88;;
6452;SDS011;3259;51.080;13.712;2022-10-16T00:47:37;4.35;;;4.05;;
6452;SDS011;3259;51.080;13.712;2022-10-16T00:50:29;4.82;;;4.43;;
6452;SDS011;3259;51.080;13.712;2022-10-16T00:53:19;4.80;;;4.40;;
6452;SDS011;3259;51.080;13.712;2022-10-16T00:56:08;5.03;;;4.10;;
6452;SDS011;3259;51.080;13.712;2022-10-16T00:58:57;4.65;;;4.05;;
6452;SDS011;3259;51.080;13.712;2022-10-16T01:01:47;4.25;;;3.85;;
6452;SDS011;3259;51.080;13.712;2022-10-16T01:04:37;4.15;;;3.85;;
6452;SDS011;3259;51.080;13.712;2022-10-16T01:07:32;3.80;;;3.50;;
6452;SDS011;3259;51.080;13.712;2022-10-16T01:10:34;5.05;;;3.88;;
6452;SDS011;3259;51.080;13.712;2022-10-16T01:13:24;4.68;;;4.28;;
6452;SDS011;3259;51.080;13.712;2022-10-16T01:16:16;4.15;;;3.72;;
6452;SDS011;3259;51.080;13.712;2022-10-16T01:19:09;4.18;;;3.88;;
6452;SDS011;3259;51.080;13.712;2022-10-16T01:22:00;3.70;;;3.38;;
6452;SDS011;3259;51.080;13.712;2022-10-16T01:24:50;3.70;;;3.40;;
6452;SDS011;3259;51.080;13.712;2022-10-16T01:27:43;4.22;;;3.55;;
6452;SDS011;3259;51.080;13.712;2022-10-16T01:30:34;4.07;;;3.78;;
6452;SDS011;3259;51.080;13.712;2022-10-16T01:33:24;3.97;;;3.67;;
6452;SDS011;3259;51.080;13.712;2022-10-16T01:36:21;3.60;;;3.30;;
6452;SDS011;3259;51.080;13.712;2022-10-16T01:39:11;3.83;;;3.53;;
6452;SDS011;3259;51.080;13.712;2022-10-16T01:42:03;3.80;;;3.50;;
6452;SDS011;3259;51.080;13.712;2022-10-16T01:44:56;3.30;;;3.10;;
6452;SDS011;3259;51.080;13.712;2022-10-16T01:47:46;5.35;;;3.90;;
6452;SDS011;3259;51.080;13.712;2022-10-16T01:50:37;3.53;;;3.22;;
6452;SDS011;3259;51.080;13.712;2022-10-16T01:53:27;3.50;;;3.15;;
6452;SDS011;3259;51.080;13.712;2022-10-16T01:56:15;4.20;;;3.60;;
6452;SDS011;3259;51.080;13.712;2022-10-16T01:59:07;3.58;;;3.38;;
6452;SDS011;3259;51.080;13.712;2022-10-16T02:01:59;3.95;;;3.55;;
6452;SDS011;3259;51.080;13.712;2022-10-16T02:04:51;3.67;;;3.40;;
6452;SDS011;3259;51.080;13.712;2022-10-16T02:07:43;5.78;;;3.63;;
6452;SDS011;3259;51.080;13.712;2022-10-16T02:10:31;4.10;;;3.70;;
6452;SDS011;3259;51.080;13.712;2022-10-16T02:13:22;4.95;;;3.40;;
6452;SDS011;3259;51.080;13.712;2022-10-16T02:16:16;3.50;;;3.20;;
6452;SDS011;3259;51.080;13.712;2022-10-16T02:19:06;4.32;;;3.92;;
6452;SDS011;3259;51.080;13.712;2022-10-16T02:21:56;3.00;;;2.90;;
6452;SDS011;3259;51.080;13.712;2022-10-16T02:24:47;3.67;;;3.38;;
6452;SDS011;3259;51.080;13.712;2022-10-16T02:27:40;4.45;;;4.15;;
6452;SDS011;3259;51.080;13.712;2022-10-16T02:30:32;5.40;;;3.95;;
6452;SDS011;3259;51.080;13.712;2022-10-16T02:33:23;3.42;;;3.13;;
6452;SDS011;3259;51.080;13.712;2022-10-16T02:36:14;4.28;;;3.88;;
6452;SDS011;3259;51.080;13.712;2022-10-16T02:39:03;3.60;;;3.30;;
6452;SDS011;3259;51.080;13.712;2022-10-16T02:41:52;4.40;;;4.00;;
6452;SDS011;3259;51.080;13.712;2022-10-16T02:44:41;3.80;;;3.60;;
6452;SDS011;3259;51.080;13.712;2022-10-16T02:47:29;3.38;;;3.17;;
6452;SDS011;3259;51.080;13.712;2022-10-16T02:50:18;3.38;;;3.17;;
6452;SDS011;3259;51.080;13.712;2022-10-16T02:53:08;2.75;;;2.60;;
6452;SDS011;3259;51.080;13.712;2022-10-16T02:55:56;3.33;;;3.13;;
6452;SDS011;3259;51.080;13.712;2022-10-16T02:58:45;4.55;;;2.83;;
6452;SDS011;3259;51.080;13.712;2022-10-16T03:01:33;3.92;;;3.63;;
6452;SDS011;3259;51.080;13.712;2022-10-16T03:04:22;3.58;;;3.25;;
6452;SDS011;3259;51.080;13.712;2022-10-16T03:07:11;3.25;;;2.97;;
6452;SDS011;3259;51.080;13.712;2022-10-16T03:10:01;3.50;;;3.30;;
6452;SDS011;3259;51.080;13.712;2022-10-16T03:12:50;3.88;;;3.58;;
6452;SDS011;3259;51.080;13.712;2022-10-16T03:15:38;3.63;;;3.42;;
6452;SDS011;3259;51.080;13.712;2022-10-16T03:18:27;3.42;;;3.22;;
6452;SDS011;3259;51.080;13.712;2022-10-16T03:21:17;4.60;;;4.20;;
6452;SDS011;3259;51.080;13.712;2022-10-16T03:24:06;3.40;;;3.20;;
6452;SDS011;3259;51.080;13.712;2022-10-16T03:26:56;3.92;;;3.47;;
6452;SDS011;3259;51.080;13.712;2022-10-16T03:29:44;3.75;;;3.55;;
6452;SDS011;3259;51.080;13.712;2022-10-16T03:32:33;3.60;;;3.30;;
6452;SDS011;3259;51.080;13.712;2022-10-16T03:35:26;3.22;;;3.00;;
6452;SDS011;3259;51.080;13.712;2022-10-16T03:38:15;3.53;;;3.33;;
6452;SDS011;3259;51.080;13.712;2022-10-16T03:41:03;5.35;;;3.42;;
6452;SDS011;3259;51.080;13.712;2022-10-16T03:43:55;4.30;;;3.38;;
6452;SDS011;3259;51.080;13.712;2022-10-16T03:46:43;3.80;;;3.50;;
6452;SDS011;3259;51.080;13.712;2022-10-16T03:49:32;3.33;;;2.92;;
6452;SDS011;3259;51.080;13.712;2022-10-16T03:52:20;3.67;;;3.38;;
6452;SDS011;3259;51.080;13.712;2022-10-16T03:55:09;3.53;;;3.33;;
6452;SDS011;3259;51.080;13.712;2022-10-16T03:57:57;3.28;;;3.08;;
6452;SDS011;3259;51.080;13.712;2022-10-16T04:00:47;3.35;;;2.97;;
6452;SDS011;3259;51.080;13.712;2022-10-16T04:03:36;3.65;;;3.45;;
6452;SDS011;3259;51.080;13.712;2022-10-16T04:06:24;3.92;;;3.63;;
6452;SDS011;3259;51.080;13.712;2022-10-16T04:09:13;3.20;;;2.92;;
6452;SDS011;3259;51.080;13.712;2022-10-16T04:12:01;3.53;;;3.20;;
6452;SDS011;3259;51.080;13.712;2022-10-16T04:14:50;3.95;;;3.63;;
6452;SDS011;3259;51.080;13.712;2022-10-16T04:17:40;3.28;;;3.08;;
6452;SDS011;3259;51.080;13.712;2022-10-16T04:20:28;4.15;;;3.78;;
6452;SDS011;3259;51.080;13.712;2022-10-16T04:23:17;3.42;;;3.22;;
6452;SDS011;3259;51.080;13.712;2022-10-16T04:26:06;3.72;;;3.03;;
6452;SDS011;3259;51.080;13.712;2022-10-16T04:28:54;3.67;;;3.47;;
6452;SDS011;3259;51.080;13.712;2022-10-16T04:31:43;3.80;;;3.50;;
6452;SDS011;3259;51.080;13.712;2022-10-16T04:34:33;3.50;;;3.20;;
6452;SDS011;3259;51.080;13.712;2022-10-16T04:37:23;3.83;;;3.53;;
6452;SDS011;3259;51.080;13.712;2022-10-16T04:40:12;3.85;;;3.63;;
6452;SDS011;3259;51.080;13.712;2022-10-16T04:43:01;3.63;;;3.42;;
6452;SDS011;3259;51.080;13.712;2022-10-16T04:45:49;3.33;;;3.13;;
6452;SDS011;3259;51.080;13.712;2022-10-16T04:48:41;3.65;;;3.40;;
6452;SDS011;3259;51.080;13.712;2022-10-16T04:51:34;3.33;;;3.10;;
6452;SDS011;3259;51.080;13.712;2022-10-16T04:54:23;3.30;;;3.10;;
6452;SDS011;3259;51.080;13.712;2022-10-16T04:57:11;3.47;;;3.28;;
6452;SDS011;3259;51.080;13.712;2022-10-16T05:00:00;3.90;;;3.50;;
6452;SDS011;3259;51.080;13.712;2022-10-16T05:02:49;3.60;;;3.30;;
6452;SDS011;3259;51.080;13.712;2022-10-16T05:05:41;4.75;;;4.35;;
6452;SDS011;3259;51.080;13.712;2022-10-16T05:08:32;3.75;;;3.45;;
6452;SDS011;3259;51.080;13.712;2022-10-16T05:11:20;3.50;;;3.20;;
6452;SDS011;3259;51.080;13.712;2022-10-16T05:14:09;4.03;;;3.70;;
6452;SDS011;3259;51.080;13.712;2022-10-16T05:16:59;3.83;;;3.55;;
6452;SDS011;3259;51.080;13.712;2022-10-16T05:19:47;4.20;;;3.90;;
6452;SDS011;3259;51.080;13.712;2022-10-16T05:22:36;3.85;;;3.60;;
6452;SDS011;3259;51.080;13.712;2022-10-16T05:25:26;4.00;;;3.70;;
6452;SDS011;3259;51.080;13.712;2022-10-16T05:28:15;3.67;;;3.38;;
6452;SDS011;3259;51.080;13.712;2022-10-16T05:31:04;4.05;;;3.75;;
6452;SDS011;3259;51.080;13.712;2022-10-16T05:33:57;3.95;;;3.65;;
6452;SDS011;3259;51.080;13.712;2022-10-16T05:36:46;4.05;;;3.65;;
6452;SDS011;3259;51.080;13.712;2022-10-16T05:39:35;4.97;;;3.30;;
6452;SDS011;3259;51.080;13.712;2022-10-16T05:42:25;4.10;;;3.50;;
6452;SDS011;3259;51.080;13.712;2022-10-16T05:45:13;4.80;;;3.05;;
6452;SDS011;3259;51.080;13.712;2022-10-16T05:48:02;3.63;;;3.42;;
6452;SDS011;3259;51.080;13.712;2022-10-16T05:50:56;3.60;;;3.30;;
6452;SDS011;3259;51.080;13.712;2022-10-16T05:53:44;11.88;;;3.47;;
6452;SDS011;3259;51.080;13.712;2022-10-16T05:56:33;9.98;;;3.03;;
6452;SDS011;3259;51.080;13.712;2022-10-16T05:59:23;3.53;;;3.22;;
6452;SDS011;3259;51.080;13.712;2022-10-16T06:02:11;3.03;;;2.78;;
6452;SDS011;3259;51.080;13.712;2022-10-16T06:05:00;4.85;;;3.55;;
6452;SDS011;3259;51.080;13.712;2022-10-16T06:07:49;2.90;;;2.70;;
6452;SDS011;3259;51.080;13.712;2022-10-16T06:10:37;3.40;;;3.20;;
6452;SDS011;3259;51.080;13.712;2022-10-16T06:13:26;4.97;;;3.05;;
6452;SDS011;3259;51.080;13.712;2022-10-16T06:16:16;4.00;;;3.60;;
6452;SDS011;3259;51.080;13.712;2022-10-16T06:19:05;3.22;;;3.00;;
6452;SDS011;3259;51.080;13.712;2022-10-16T06:21:54;2.95;;;2.75;;
6452;SDS011;3259;51.080;13.712;2022-10-16T06:24:44;3.40;;;3.10;;
6452;SDS011;3259;51.080;13.712;2022-10-16T06:27:34;3.03;;;2.83;;
6452;SDS011;3259;51.080;13.712;2022-10-16T06:30:22;3.63;;;3.33;;
6452;SDS011;3259;51.080;13.712;2022-10-16T06:33:12;2.60;;;2.45;;
6452;SDS011;3259;51.080;13.712;2022-10-16T06:36:01;3.42;;;3.22;;
6452;SDS011;3259;51.080;13.712;2022-10-16T06:38:50;3.20;;;3.00;;
6452;SDS011;3259;51.080;13.712;2022-10-16T06:41:38;3.13;;;2.92;;
6452;SDS011;3259;51.080;13.712;2022-10-16T06:44:27;5.68;;;3.10;;
6452;SDS011;3259;51.080;13.712;2022-10-16T06:47:15;3.22;;;3.03;;
6452;SDS011;3259;51.080;13.712;2022-10-16T06:50:06;3.05;;;2.85;;
6452;SDS011;3259;51.080;13.712;2022-10-16T06:52:55;4.00;;;3.70;;
6452;SDS011;3259;51.080;13.712;2022-10-16T06:55:44;3.17;;;2.97;;
6452;SDS011;3259;51.080;13.712;2022-10-16T06:58:32;3.30;;;2.97;;
6452;SDS011;3259;51.080;13.712;2022-10-16T07:01:23;3.85;;;3.40;;
6452;SDS011;3259;51.080;13.712;2022-10-16T07:04:13;4.20;;;3.80;;
6452;SDS011;3259;51.080;13.712;2022-10-16T07:07:03;4.22;;;3.45;;
6452;SDS011;3259;51.080;13.712;2022-10-16T07:09:59;4.18;;;3.88;;
6452;SDS011;3259;51.080;13.712;2022-10-16T07:12:48;4.25;;;3.95;;
6452;SDS011;3259;51.080;13.712;2022-10-16T07:15:36;4.70;;;4.28;;
6452;SDS011;3259;51.080;13.712;2022-10-16T07:18:27;4.93;;;3.22;;
6452;SDS011;3259;51.080;13.712;2022-10-16T07:21:21;3.72;;;3.53;;
6452;SDS011;3259;51.080;13.712;2022-10-16T07:24:15;3.40;;;3.22;;
6452;SDS011;3259;51.080;13.712;2022-10-16T07:27:04;2.90;;;2.67;;
6452;SDS011;3259;51.080;13.712;2022-10-16T07:29:52;3.72;;;3.38;;
6452;SDS011;3259;51.080;13.712;2022-10-16T07:32:41;3.70;;;3.28;;
6452;SDS011;3259;51.080;13.712;2022-10-16T07:35:29;3.13;;;2.92;;
6452;SDS011;3259;51.080;13.712;2022-10-16T07:38:18;3.38;;;3.17;;
6452;SDS011;3259;51.080;13.712;2022-10-16T07:41:09;5.38;;;3.40;;
6452;SDS011;3259;51.080;13.712;2022-10-16T07:44:00;3.33;;;3.13;;
6452;SDS011;3259;51.080;13.712;2022-10-16T07:46:49;5.03;;;3.40;;
6452;SDS011;3259;51.080;13.712;2022-10-16T07:49:37;3.75;;;3.50;;
6452;SDS011;3259;51.080;13.712;2022-10-16T07:52:26;3.80;;;3.50;;
6452;SDS011;3259;51.080;13.712;2022-10-16T07:55:15;3.88;;;3.58;;
6452;SDS011;3259;51.080;13.712;2022-10-16T07:58:04;4.35;;;3.70;;
6452;SDS011;3259;51.080;13.712;2022-10-16T08:00:53;3.92;;;3.63;;
6452;SDS011;3259;51.080;13.712;2022-10-16T08:03:42;4.93;;;4.50;;
6452;SDS011;3259;51.080;13.712;2022-10-16T08:06:34;3.97;;;3.67;;
6452;SDS011;3259;51.080;13.712;2022-10-16T08:09:23;4.20;;;3.90;;
6452;SDS011;3259;51.080;13.712;2022-10-16T08:12:12;4.00;;;3.65;;
6452;SDS011;3259;51.080;13.712;2022-10-16T08:15:01;5.40;;;3.90;;
6452;SDS011;3259;51.080;13.712;2022-10-16T08:17:56;4.30;;;4.03;;
6452;SDS011;3259;51.080;13.712;2022-10-16T08:20:46;3.95;;;3.60;;
6452;SDS011;3259;51.080;13.712;2022-10-16T08:23:35;7.80;;;3.90;;
6452;SDS011;3259;51.080;13.712;2022-10-16T08:26:24;6.18;;;4.03;;
6452;SDS011;3259;51.080;13.712;2022-10-16T08:29:13;5.53;;;4.22;;
6452;SDS011;3259;51.080;13.712;2022-10-16T08:32:04;5.32;;;4.07;;
6452;SDS011;3259;51.080;13.712;2022-10-16T08:34:53;5.65;;;4.45;;
6452;SDS011;3259;51.080;13.712;2022-10-16T08:37:42;9.30;;;4.93;;
6452;SDS011;3259;51.080;13.712;2022-10-16T08:40:31;7.50;;;5.30;;
6452;SDS011;3259;51.080;13.712;2022-10-16T08:43:24;5.20;;;4.20;;
6452;SDS011;3259;51.080;13.712;2022-10-16T08:46:21;4.72;;;4.32;;
6452;SDS011;3259;51.080;13.712;2022-10-16T08:49:18;7.45;;;4.65;;
6452;SDS011;3259;51.080;13.712;2022-10-16T08:52:08;4.93;;;4.53;;
6452;SDS011;3259;51.080;13.712;2022-10-16T08:54:59;5.15;;;3.80;;
6452;SDS011;3259;51.080;13.712;2022-10-16T08:57:48;8.65;;;4.72;;
6452;SDS011;3259;51.080;13.712;2022-10-16T09:00:37;9.23;;;5.00;;
6452;SDS011;3259;51.080;13.712;2022-10-16T09:03:36;12.77;;;5.20;;
6452;SDS011;3259;51.080;13.712;2022-10-16T09:06:37;5.75;;;5.03;;
6452;SDS011;3259;51.080;13.712;2022-10-16T09:09:36;8.93;;;5.03;;
6452;SDS011;3259;51.080;13.712;2022-10-16T09:12:33;8.85;;;5.72;;
6452;SDS011;3259;51.080;13.712;2022-10-16T09:15:28;7.63;;;5.32;;
6452;SDS011;3259;51.080;13.712;2022-10-16T09:18:20;4.10;;;3.80;;
6452;SDS011;3259;51.080;13.712;2022-10-16T09:21:19;4.22;;;3.92;;
6452;SDS011;3259;51.080;13.712;2022-10-16T09:24:12;3.83;;;3.30;;
6452;SDS011;3259;51.080;13.712;2022-10-16T09:27:02;3.50;;;3.13;;
6452;SDS011;3259;51.080;13.712;2022-10-16T09:29:51;3.05;;;2.85;;
6452;SDS011;3259;51.080;13.712;2022-10-16T09:32:46;4.78;;;2.50;;
6452;SDS011;3259;51.080;13.712;2022-10-16T09:35:37;2.88;;;2.25;;
6452;SDS011;3259;51.080;13.712;2022-10-16T09:38:27;3.20;;;3.00;;
6452;SDS011;3259;51.080;13.712;2022-10-16T09:41:19;2.42;;;2.22;;
6452;SDS011;3259;51.080;13.712;2022-10-16T09:44:15;2.28;;;2.15;;
6452;SDS011;3259;51.080;13.712;2022-10-16T09:47:12;5.00;;;2.00;;
6452;SDS011;3259;51.080;13.712;2022-10-16T09:50:05;2.25;;;2.15;;
6452;SDS011;3259;51.080;13.712;2022-10-16T09:53:10;1.70;;;1.70;;
6452;SDS011;3259;51.080;13.712;2022-10-16T09:55:59;4.55;;;1.95;;
6452;SDS011;3259;51.080;13.712;2022-10-16T09:58:51;4.00;;;1.80;;
6452;SDS011;3259;51.080;13.712;2022-10-16T10:01:40;2.83;;;1.55;;
6452;SDS011;3259;51.080;13.712;2022-10-16T10:04:37;2.05;;;1.85;;
6452;SDS011;3259;51.080;13.712;2022-10-16T10:07:28;5.63;;;1.95;;
6452;SDS011;3259;51.080;13.712;2022-10-16T10:10:21;2.00;;;1.90;;
6452;SDS011;3259;51.080;13.712;2022-10-16T10:13:16;2.85;;;1.80;;
6452;SDS011;3259;51.080;13.712;2022-10-16T10:16:07;3.45;;;2.17;;
6452;SDS011;3259;51.080;13.712;2022-10-16T10:18:58;2.58;;;1.65;;
6452;SDS011;3259;51.080;13.712;2022-10-16T10:21:47;7.75;;;2.30;;
6452;SDS011;3259;51.080;13.712;2022-10-16T10:24:36;1.48;;;1.38;;
6452;SDS011;3259;51.080;13.712;2022-10-16T10:27:28;1.23;;;0.95;;
6452;SDS011;3259;51.080;13.712;2022-10-16T10:30:23;0.65;;;0.55;;
6452;SDS011;3259;51.080;13.712;2022-10-16T10:33:17;0.47;;;0.47;;
6452;SDS011;3259;51.080;13.712;2022-10-16T10:36:12;0.73;;;0.30;;
6452;SDS011;3259;51.080;13.712;2022-10-16T10:39:07;0.30;;;0.30;;
6452;SDS011;3259;51.080;13.712;2022-10-16T10:42:06;1.27;;;0.28;;
6452;SDS011;3259;51.080;13.712;2022-10-16T10:45:11;0.30;;;0.20;;
6452;SDS011;3259;51.080;13.712;2022-10-16T10:51:23;0.98;;;0.20;;
6452;SDS011;3259;51.080;13.712;2022-10-16T10:54:17;0.60;;;0.20;;
6452;SDS011;3259;51.080;13.712;2022-10-16T10:57:13;1.02;;;0.22;;
6452;SDS011;3259;51.080;13.712;2022-10-16T11:00:14;4.13;;;0.20;;
6452;SDS011;3259;51.080;13.712;2022-10-16T11:03:09;1.30;;;0.30;;
6452;SDS011;3259;51.080;13.712;2022-10-16T11:06:10;2.28;;;0.10;;
6452;SDS011;3259;51.080;13.712;2022-10-16T11:09:00;0.10;;;0.10;;
6452;SDS011;3259;51.080;13.712;2022-10-16T11:11:56;0.10;;;0.10;;
6452;SDS011;3259;51.080;13.712;2022-10-16T11:14:48;0.32;;;0.22;;
6452;SDS011;3259;51.080;13.712;2022-10-16T11:17:41;0.10;;;0.10;;
6452;SDS011;3259;51.080;13.712;2022-10-16T11:20:34;0.03;;;0.03;;
6452;SDS011;3259;51.080;13.712;2022-10-16T11:23:37;0.10;;;0.10;;
6452;SDS011;3259;51.080;13.712;2022-10-16T11:26:29;0.17;;;0.10;;
6452;SDS011;3259;51.080;13.712;2022-10-16T11:29:22;0.10;;;0.10;;
6452;SDS011;3259;51.080;13.712;2022-10-16T11:32:18;0.43;;;0.10;;
6452;SDS011;3259;51.080;13.712;2022-10-16T11:35:11;0.10;;;0.10;;
6452;SDS011;3259;51.080;13.712;2022-10-16T11:38:04;1.35;;;0.10;;
6452;SDS011;3259;51.080;13.712;2022-10-16T11:41:00;0.10;;;0.10;;
6452;SDS011;3259;51.080;13.712;2022-10-16T11:43:53;1.75;;;0.00;;
6452;SDS011;3259;51.080;13.712;2022-10-16T11:46:49;0.10;;;0.10;;
6452;SDS011;3259;51.080;13.712;2022-10-16T11:50:02;0.10;;;0.10;;
6452;SDS011;3259;51.080;13.712;2022-10-16T11:52:55;0.13;;;0.10;;
6452;SDS011;3259;51.080;13.712;2022-10-16T11:55:51;0.25;;;0.10;;
6452;SDS011;3259;51.080;13.712;2022-10-16T11:58:52;0.75;;;0.20;;
6452;SDS011;3259;51.080;13.712;2022-10-16T12:01:46;1.77;;;0.20;;
6452;SDS011;3259;51.080;13.712;2022-10-16T12:04:37;1.95;;;0.15;;
6452;SDS011;3259;51.080;13.712;2022-10-16T12:07:32;0.47;;;0.25;;
6452;SDS011;3259;51.080;13.712;2022-10-16T12:10:26;0.70;;;0.10;;
6452;SDS011;3259;51.080;13.712;2022-10-16T12:13:28;0.20;;;0.20;;
6452;SDS011;3259;51.080;13.712;2022-10-16T12:16:22;0.00;;;0.00;;
6452;SDS011;3259;51.080;13.712;2022-10-16T12:19:13;0.10;;;0.10;;
6452;SDS011;3259;51.080;13.712;2022-10-16T12:22:02;0.57;;;0.10;;
6452;SDS011;3259;51.080;13.712;2022-10-16T12:24:51;0.30;;;0.10;;
6452;SDS011;3259;51.080;13.712;2022-10-16T12:27:40;1.50;;;0.20;;
6452;SDS011;3259;51.080;13.712;2022-10-16T12:30:29;0.30;;;0.13;;
6452;SDS011;3259;51.080;13.712;2022-10-16T12:33:23;0.30;;;0.25;;
6452;SDS011;3259;51.080;13.712;2022-10-16T12:36:13;1.95;;;0.22;;
6452;SDS011;3259;51.080;13.712;2022-10-16T12:39:16;1.45;;;0.20;;
6452;SDS011;3259;51.080;13.712;2022-10-16T12:42:19;1.27;;;0.20;;
6452;SDS011;3259;51.080;13.712;2022-10-16T12:45:22;0.20;;;0.20;;
6452;SDS011;3259;51.080;13.712;2022-10-16T12:48:19;4.43;;;0.20;;
6452;SDS011;3259;51.080;13.712;2022-10-16T12:51:24;0.13;;;0.10;;
6452;SDS011;3259;51.080;13.712;2022-10-16T12:54:22;0.60;;;0.10;;
6452;SDS011;3259;51.080;13.712;2022-10-16T12:57:26;1.40;;;0.32;;
6452;SDS011;3259;51.080;13.712;2022-10-16T13:00:24;1.92;;;0.20;;
6452;SDS011;3259;51.080;13.712;2022-10-16T13:03:34;44.30;;;2.42;;
6452;SDS011;3259;51.080;13.712;2022-10-16T13:06:35;28.92;;;1.35;;
6452;SDS011;3259;51.080;13.712;2022-10-16T13:09:40;10.02;;;0.43;;
6452;SDS011;3259;51.080;13.712;2022-10-16T13:16:11;2.78;;;0.32;;
6452;SDS011;3259;51.080;13.712;2022-10-16T13:19:08;9.45;;;0.38;;
6452;SDS011;3259;51.080;13.712;2022-10-16T13:22:04;1.95;;;0.20;;
6452;SDS011;3259;51.080;13.712;2022-10-16T13:24:58;25.20;;;2.10;;
6452;SDS011;3259;51.080;13.712;2022-10-16T13:27:59;81.30;;;4.82;;
6452;SDS011;3259;51.080;13.712;2022-10-16T13:30:51;31.20;;;1.50;;
6452;SDS011;3259;51.080;13.712;2022-10-16T13:33:41;8.00;;;0.60;;
6452;SDS011;3259;51.080;13.712;2022-10-16T13:36:33;2.60;;;0.50;;
6452;SDS011;3259;51.080;13.712;2022-10-16T13:39:25;22.27;;;0.57;;
6452;SDS011;3259;51.080;13.712;2022-10-16T13:42:22;4.03;;;0.30;;
6452;SDS011;3259;51.080;13.712;2022-10-16T13:45:17;1.65;;;0.47;;
6452;SDS011;3259;51.080;13.712;2022-10-16T13:48:09;4.47;;;0.30;;
6452;SDS011;3259;51.080;13.712;2022-10-16T13:51:00;3.42;;;0.40;;
6452;SDS011;3259;51.080;13.712;2022-10-16T13:53:49;5.63;;;0.60;;
6452;SDS011;3259;51.080;13.712;2022-10-16T13:56:39;7.28;;;0.50;;
6452;SDS011;3259;51.080;13.712;2022-10-16T13:59:32;1.98;;;0.73;;
6452;SDS011;3259;51.080;13.712;2022-10-16T14:02:24;4.78;;;0.77;;
6452;SDS011;3259;51.080;13.712;2022-10-16T14:05:14;3.67;;;0.68;;
6452;SDS011;3259;51.080;13.712;2022-10-16T14:08:03;3.95;;;0.57;;
6452;SDS011;3259;51.080;13.712;2022-10-16T14:10:52;7.30;;;0.88;;
6452;SDS011;3259;51.080;13.712;2022-10-16T14:13:44;9.45;;;1.60;;
6452;SDS011;3259;51.080;13.712;2022-10-16T14:16:33;5.85;;;0.80;;
6452;SDS011;3259;51.080;13.712;2022-10-16T14:19:22;16.63;;;0.98;;
6452;SDS011;3259;51.080;13.712;2022-10-16T14:22:19;0.60;;;0.40;;
6452;SDS011;3259;51.080;13.712;2022-10-16T14:25:20;6.10;;;0.45;;
6452;SDS011;3259;51.080;13.712;2022-10-16T14:28:15;4.32;;;0.57;;
6452;SDS011;3259;51.080;13.712;2022-10-16T14:31:19;1.15;;;0.30;;
6452;SDS011;3259;51.080;13.712;2022-10-16T14:34:28;3.85;;;0.50;;
6452;SDS011;3259;51.080;13.712;2022-10-16T14:37:21;0.93;;;0.68;;
6452;SDS011;3259;51.080;13.712;2022-10-16T14:40:14;0.60;;;0.50;;
6452;SDS011;3259;51.080;13.712;2022-10-16T14:43:03;0.50;;;0.50;;
6452;SDS011;3259;51.080;13.712;2022-10-16T14:45:53;1.27;;;0.80;;
6452;SDS011;3259;51.080;13.712;2022-10-16T14:48:45;2.00;;;0.60;;
6452;SDS011;3259;51.080;13.712;2022-10-16T14:51:36;3.05;;;0.70;;
6452;SDS011;3259;51.080;13.712;2022-10-16T14:54:25;0.73;;;0.73;;
6452;SDS011;3259;51.080;13.712;2022-10-16T14:57:15;1.80;;;0.88;;
6452;SDS011;3259;51.080;13.712;2022-10-16T15:00:08;7.60;;;1.08;;
6452;SDS011;3259;51.080;13.712;2022-10-16T15:03:03;1.17;;;0.88;;
6452;SDS011;3259;51.080;13.712;2022-10-16T15:05:53;1.50;;;0.80;;
6452;SDS011;3259;51.080;13.712;2022-10-16T15:08:42;1.58;;;0.60;;
6452;SDS011;3259;51.080;13.712;2022-10-16T15:11:35;1.05;;;1.05;;
6452;SDS011;3259;51.080;13.712;2022-10-16T15:14:24;4.65;;;0.77;;
6452;SDS011;3259;51.080;13.712;2022-10-16T15:17:12;3.53;;;0.80;;
6452;SDS011;3259;51.080;13.712;2022-10-16T15:20:05;2.05;;;0.80;;
6452;SDS011;3259;51.080;13.712;2022-10-16T15:22:56;1.95;;;1.20;;
6452;SDS011;3259;51.080;13.712;2022-10-16T15:25:45;0.75;;;0.63;;
6452;SDS011;3259;51.080;13.712;2022-10-16T15:28:34;2.30;;;0.57;;
6452;SDS011;3259;51.080;13.712;2022-10-16T15:31:23;0.57;;;0.57;;
6452;SDS011;3259;51.080;13.712;2022-10-16T15:34:12;0.50;;;0.47;;
6452;SDS011;3259;51.080;13.712;2022-10-16T15:37:02;0.82;;;0.50;;
6452;SDS011;3259;51.080;13.712;2022-10-16T15:39:52;0.60;;;0.60;;
6452;SDS011;3259;51.080;13.712;2022-10-16T15:42:44;1.58;;;0.55;;
6452;SDS011;3259;51.080;13.712;2022-10-16T15:45:32;1.17;;;0.65;;
6452;SDS011;3259;51.080;13.712;2022-10-16T15:48:21;5.53;;;0.73;;
6452;SDS011;3259;51.080;13.712;2022-10-16T15:51:09;2.97;;;0.95;;
6452;SDS011;3259;51.080;13.712;2022-10-16T15:53:58;0.65;;;0.65;;
6452;SDS011;3259;51.080;13.712;2022-10-16T15:56:49;0.50;;;0.50;;
6452;SDS011;3259;51.080;13.712;2022-10-16T15:59:39;4.55;;;1.02;;
6452;SDS011;3259;51.080;13.712;2022-10-16T16:02:28;1.02;;;0.70;;
6452;SDS011;3259;51.080;13.712;2022-10-16T16:05:16;0.80;;;0.80;;
6452;SDS011;3259;51.080;13.712;2022-10-16T16:08:05;1.20;;;0.90;;
6452;SDS011;3259;51.080;13.712;2022-10-16T16:10:57;0.98;;;0.60;;
6452;SDS011;3259;51.080;13.712;2022-10-16T16:13:47;4.00;;;1.27;;
6452;SDS011;3259;51.080;13.712;2022-10-16T16:16:36;1.08;;;0.90;;
6452;SDS011;3259;51.080;13.712;2022-10-16T16:19:24;1.40;;;1.00;;
6452;SDS011;3259;51.080;13.712;2022-10-16T16:22:13;1.20;;;1.10;;
6452;SDS011;3259;51.080;13.712;2022-10-16T16:25:01;1.02;;;0.90;;
6452;SDS011;3259;51.080;13.712;2022-10-16T16:27:51;2.58;;;0.75;;
6452;SDS011;3259;51.080;13.712;2022-10-16T16:30:41;1.70;;;1.08;;
6452;SDS011;3259;51.080;13.712;2022-10-16T16:33:29;1.40;;;1.00;;
6452;SDS011;3259;51.080;13.712;2022-10-16T16:36:18;3.17;;;1.25;;
6452;SDS011;3259;51.080;13.712;2022-10-16T16:39:12;1.35;;;0.80;;
6452;SDS011;3259;51.080;13.712;2022-10-16T16:42:00;1.08;;;1.00;;
6452;SDS011;3259;51.080;13.712;2022-10-16T16:44:50;6.20;;;1.55;;
6452;SDS011;3259;51.080;13.712;2022-10-16T16:47:40;1.45;;;1.35;;
6452;SDS011;3259;51.080;13.712;2022-10-16T16:50:29;1.95;;;1.17;;
6452;SDS011;3259;51.080;13.712;2022-10-16T16:53:17;3.17;;;1.30;;
6452;SDS011;3259;51.080;13.712;2022-10-16T16:56:06;2.03;;;1.67;;
6452;SDS011;3259;51.080;13.712;2022-10-16T16:58:55;4.20;;;2.33;;
6452;SDS011;3259;51.080;13.712;2022-10-16T17:01:44;2.58;;;2.38;;
6452;SDS011;3259;51.080;13.712;2022-10-16T17:04:38;2.10;;;2.00;;
6452;SDS011;3259;51.080;13.712;2022-10-16T17:07:30;4.15;;;2.20;;
6452;SDS011;3259;51.080;13.712;2022-10-16T17:10:20;1.95;;;1.83;;
6452;SDS011;3259;51.080;13.712;2022-10-16T17:13:09;2.75;;;2.17;;
6452;SDS011;3259;51.080;13.712;2022-10-16T17:15:57;3.92;;;2.80;;
6452;SDS011;3259;51.080;13.712;2022-10-16T17:18:46;3.33;;;2.97;;
6452;SDS011;3259;51.080;13.712;2022-10-16T17:21:36;3.63;;;2.70;;
6452;SDS011;3259;51.080;13.712;2022-10-16T17:24:24;4.53;;;2.97;;
6452;SDS011;3259;51.080;13.712;2022-10-16T17:27:13;3.30;;;3.00;;
6452;SDS011;3259;51.080;13.712;2022-10-16T17:30:02;3.42;;;2.75;;
6452;SDS011;3259;51.080;13.712;2022-10-16T17:32:51;4.50;;;2.63;;
6452;SDS011;3259;51.080;13.712;2022-10-16T17:35:40;4.72;;;3.25;;